Time;durP1;ratioP1;P1;durP2;ratioP2;P2;SDS_P1;SDS_P2;PMS_P1;PMS_P2;Temp;Humidity;BMP_temperature;BMP_pressure;BME280_temperature;BME280_humidity;BME280_pressure;Samples;Min_cycle;Max_cycle;Signal;HPM_P1;HPM_P2
2020/12/03 00:00:48;;;;;;;27.40;15.90;;;4.70;92.20;;;;;;4898469;29;20040;-91
2020/12/03 00:03:24;;;;;;;25.33;14.68;;;4.60;92.20;;;;;;4905771;29;20390;-92
2020/12/03 00:05:55;;;;;;;25.07;14.27;;;4.60;92.30;;;;;;4906653;29;20467;-91
2020/12/03 00:08:22;;;;;;;27.20;15.70;;;4.70;92.30;;;;;;4904788;29;20055;-91
2020/12/03 00:10:48;;;;;;;28.60;16.30;;;4.60;92.30;;;;;;4904485;29;20035;-91
2020/12/03 00:13:23;;;;;;;28.23;15.47;;;4.60;92.30;;;;;;4905109;29;20032;-91
2020/12/03 00:15:56;;;;;;;28.67;16.17;;;4.70;92.40;;;;;;4904492;29;20028;-91
2020/12/03 00:18:22;;;;;;;29.13;16.73;;;4.70;92.40;;;;;;4904958;29;20024;-91
2020/12/03 00:20:48;;;;;;;26.90;16.50;;;4.60;92.40;;;;;;4920775;29;20622;-91
2020/12/03 00:23:14;;;;;;;27.37;15.90;;;4.60;92.50;;;;;;4914062;29;20040;-90
2020/12/03 00:25:40;;;;;;;26.90;15.57;;;4.60;92.50;;;;;;4923734;29;20028;-91
2020/12/03 00:28:06;;;;;;;28.60;16.57;;;4.60;92.50;;;;;;4924470;29;20497;-91
2020/12/03 00:30:31;;;;;;;26.10;14.63;;;4.60;92.40;;;;;;4924487;29;20032;-91
2020/12/03 00:32:57;;;;;;;26.77;15.17;;;4.70;92.50;;;;;;4924757;29;20027;-91
2020/12/03 00:35:24;;;;;;;26.13;14.70;;;4.70;92.50;;;;;;4924762;29;20027;-91
2020/12/03 00:37:50;;;;;;;26.17;14.60;;;4.70;92.50;;;;;;4923855;29;20091;-91
2020/12/03 00:40:16;;;;;;;24.73;13.63;;;4.60;92.40;;;;;;4924279;29;20031;-91
2020/12/03 00:42:42;;;;;;;26.93;14.53;;;4.60;92.50;;;;;;4925002;29;20071;-91
2020/12/03 00:45:10;;;;;;;25.33;14.40;;;4.70;92.80;;;;;;4924770;29;20043;-91
2020/12/03 00:47:38;;;;;;;26.13;15.20;;;4.60;92.50;;;;;;4924946;29;20425;-91
2020/12/03 00:50:05;;;;;;;26.20;14.73;;;4.70;92.50;;;;;;4940957;29;20042;-90
2020/12/03 00:52:30;;;;;;;25.73;15.50;;;4.70;92.50;;;;;;4923471;29;20046;-91
2020/12/03 00:54:56;;;;;;;27.10;14.97;;;4.70;92.50;;;;;;4923249;29;20035;-91
2020/12/03 00:57:21;;;;;;;25.90;15.63;;;4.70;92.40;;;;;;4922442;29;20028;-91
2020/12/03 00:59:47;;;;;;;27.97;15.87;;;4.70;92.50;;;;;;4940556;29;20063;-91
2020/12/03 01:02:15;;;;;;;25.63;15.20;;;4.70;92.50;;;;;;4923839;29;20095;-91
2020/12/03 01:04:41;;;;;;;28.87;16.33;;;4.70;92.50;;;;;;4915705;29;20126;-91
2020/12/03 01:07:07;;;;;;;26.83;15.27;;;4.60;92.50;;;;;;4924063;29;20489;-91
2020/12/03 01:09:36;;;;;;;25.03;15.20;;;4.70;92.50;;;;;;4923712;29;20039;-91
2020/12/03 01:12:04;;;;;;;24.35;14.63;;;4.70;92.50;;;;;;4922750;29;20114;-91
2020/12/03 01:14:34;;;;;;;26.60;15.70;;;4.70;92.50;;;;;;4923048;29;20036;-91
2020/12/03 01:17:00;;;;;;;27.50;15.17;;;4.70;92.50;;;;;;4923343;29;20032;-90
2020/12/03 01:19:26;;;;;;;26.20;15.97;;;4.70;92.50;;;;;;4922710;29;20059;-91
2020/12/03 01:21:51;;;;;;;28.20;16.93;;;4.70;92.50;;;;;;4922920;29;20114;-91
2020/12/03 01:24:17;;;;;;;28.50;16.70;;;4.70;92.50;;;;;;4924093;29;20075;-91
2020/12/03 01:26:42;;;;;;;27.37;15.83;;;4.70;92.50;;;;;;4922550;29;20087;-91
2020/12/03 01:29:08;;;;;;;29.77;17.33;;;4.70;92.40;;;;;;4922723;29;20442;-91
2020/12/03 01:31:33;;;;;;;26.17;15.53;;;4.70;92.50;;;;;;4923388;29;20485;-91
2020/12/03 01:34:00;;;;;;;27.20;15.67;;;4.70;92.40;;;;;;4922898;29;20038;-91
2020/12/03 01:36:25;;;;;;;28.43;16.40;;;4.70;92.40;;;;;;4923311;29;20075;-91
2020/12/03 01:38:51;;;;;;;27.03;16.13;;;4.70;92.30;;;;;;4923686;29;20457;-91
2020/12/03 01:41:17;;;;;;;29.03;16.30;;;4.70;92.40;;;;;;4922713;29;20036;-91
2020/12/03 01:43:43;;;;;;;28.30;16.57;;;4.70;92.40;;;;;;4923732;29;20028;-92
2020/12/03 01:46:09;;;;;;;27.33;16.27;;;4.70;92.40;;;;;;4924984;29;20036;-91
2020/12/03 01:48:35;;;;;;;29.10;17.50;;;4.70;92.30;;;;;;4924250;29;20024;-91
2020/12/03 01:51:03;;;;;;;28.40;16.60;;;4.80;92.30;;;;;;4923938;29;20038;-91
2020/12/03 01:53:29;;;;;;;27.73;16.33;;;4.80;92.20;;;;;;4922580;29;20034;-91
2020/12/03 01:55:56;;;;;;;27.33;16.53;;;4.80;92.30;;;;;;4926006;29;20023;-91
2020/12/03 01:58:33;;;;;;;28.53;16.80;;;4.70;92.30;;;;;;4941911;29;20066;-91
2020/12/03 02:01:01;;;;;;;25.77;15.40;;;4.70;92.30;;;;;;4941283;29;20126;-91
2020/12/03 02:03:27;;;;;;;27.07;15.83;;;4.70;92.40;;;;;;4943707;29;20445;-91
2020/12/03 02:05:53;;;;;;;27.43;16.20;;;4.70;92.40;;;;;;4944896;29;20035;-91
2020/12/03 02:08:18;;;;;;;26.97;15.33;;;4.80;92.30;;;;;;4946289;29;20027;-91
2020/12/03 02:10:44;;;;;;;26.83;15.47;;;4.70;92.30;;;;;;4945181;29;20031;-91
2020/12/03 02:13:09;;;;;;;26.00;15.63;;;4.70;92.40;;;;;;4944930;29;20035;-91
2020/12/03 02:15:36;;;;;;;26.70;15.43;;;4.70;92.40;;;;;;4944140;29;20023;-91
2020/12/03 02:18:05;;;;;;;24.60;14.20;;;4.70;92.40;;;;;;4945619;29;20023;-90
2020/12/03 02:20:30;;;;;;;26.60;15.82;;;4.70;92.40;;;;;;4944037;29;20138;-87
2020/12/03 02:22:56;;;;;;;25.67;14.97;;;4.70;92.30;;;;;;4942152;29;20086;-88
2020/12/03 02:25:22;;;;;;;26.10;14.80;;;4.80;92.30;;;;;;4942351;29;20027;-88
2020/12/03 02:27:47;;;;;;;25.97;15.47;;;4.70;92.40;;;;;;4941854;29;20050;-87
2020/12/03 02:30:14;;;;;;;24.80;14.83;;;4.70;92.40;;;;;;4941630;29;20082;-88
2020/12/03 02:32:40;;;;;;;28.33;15.23;;;4.70;92.30;;;;;;4951662;29;20015;-87
2020/12/03 02:35:08;;;;;;;25.83;15.00;;;4.70;92.40;;;;;;4942106;29;20517;-88
2020/12/03 02:37:33;;;;;;;26.33;15.43;;;4.70;92.30;;;;;;4942126;29;20036;-88
2020/12/03 02:40:00;;;;;;;26.97;15.43;;;4.70;92.40;;;;;;4940718;29;20034;-88
2020/12/03 02:42:26;;;;;;;25.47;15.07;;;4.70;92.40;;;;;;4941696;29;20027;-87
2020/12/03 02:44:52;;;;;;;27.87;15.67;;;4.70;92.40;;;;;;4941935;29;20533;-88
2020/12/03 02:47:20;;;;;;;28.37;15.97;;;4.70;92.40;;;;;;4941935;29;20031;-87
2020/12/03 02:49:47;;;;;;;26.53;14.83;;;4.70;92.40;;;;;;4942064;29;20094;-88
2020/12/03 02:52:14;;;;;;;28.00;16.17;;;4.70;92.40;;;;;;4941682;29;20038;-87
2020/12/03 02:54:41;;;;;;;27.27;15.27;;;4.70;92.50;;;;;;4933990;29;20078;-89
2020/12/03 02:57:07;;;;;;;27.60;16.07;;;4.70;92.50;;;;;;4941506;29;20081;-88
2020/12/03 02:59:33;;;;;;;27.47;15.00;;;4.70;92.50;;;;;;4958663;29;20058;-89
2020/12/03 03:01:59;;;;;;;26.80;15.70;;;4.70;92.50;;;;;;4941233;29;20481;-87
2020/12/03 03:04:25;;;;;;;27.93;16.17;;;4.70;92.40;;;;;;4941619;29;20061;-88
2020/12/03 03:06:51;;;;;;;27.53;15.40;;;4.70;92.50;;;;;;4941311;29;20059;-88
2020/12/03 03:09:17;;;;;;;26.23;15.10;;;4.60;92.50;;;;;;4941469;29;20031;-88
2020/12/03 03:11:43;;;;;;;28.67;16.10;;;4.70;92.50;;;;;;4941458;29;20031;-88
2020/12/03 03:14:08;;;;;;;25.40;14.03;;;4.70;92.50;;;;;;4941213;29;20480;-88
2020/12/03 03:16:34;;;;;;;24.97;13.67;;;4.70;92.40;;;;;;4941213;29;20039;-88
2020/12/03 03:19:00;;;;;;;23.17;13.00;;;4.70;92.40;;;;;;4941169;29;20031;-87
2020/12/03 03:21:26;;;;;;;26.43;14.30;;;4.70;92.40;;;;;;4940634;29;20429;-88
2020/12/03 03:23:52;;;;;;;25.47;14.17;;;4.70;92.30;;;;;;4940132;29;20043;-88
2020/12/03 03:26:18;;;;;;;25.50;14.90;;;4.70;92.30;;;;;;4958242;29;20086;-86
2020/12/03 03:28:44;;;;;;;27.20;13.73;;;4.70;92.30;;;;;;4941212;29;20031;-88
2020/12/03 03:31:09;;;;;;;27.87;14.80;;;4.80;92.20;;;;;;4940608;29;20035;-87
2020/12/03 03:33:35;;;;;;;31.03;15.87;;;4.70;92.10;;;;;;4941020;29;20662;-88
2020/12/03 03:36:01;;;;;;;30.30;16.30;;;4.70;92.00;;;;;;4940828;29;20028;-87
2020/12/03 03:38:26;;;;;;;27.63;15.87;;;4.70;92.10;;;;;;4952591;29;20159;-87
2020/12/03 03:40:52;;;;;;;32.57;17.67;;;4.60;92.20;;;;;;4922211;29;20036;-87
2020/12/03 03:43:17;;;;;;;31.73;16.23;;;4.60;92.30;;;;;;4938710;29;20023;-88
2020/12/03 03:45:43;;;;;;;33.10;17.23;;;4.60;92.40;;;;;;4921943;29;20031;-88
2020/12/03 03:48:08;;;;;;;34.20;17.40;;;4.60;92.40;;;;;;4938759;29;20063;-88
2020/12/03 03:50:34;;;;;;;29.93;16.70;;;4.60;92.40;;;;;;4921945;29;20036;-88
2020/12/03 03:53:00;;;;;;;32.60;18.17;;;4.60;92.40;;;;;;4921987;29;20039;-87
2020/12/03 03:55:25;;;;;;;31.10;17.30;;;4.60;92.30;;;;;;4921659;29;20028;-87
2020/12/03 03:57:51;;;;;;;30.87;17.83;;;4.60;92.40;;;;;;4921238;29;20475;-89
2020/12/03 04:00:18;;;;;;;33.37;18.23;;;4.70;92.40;;;;;;4921342;29;20421;-86
2020/12/03 04:02:46;;;;;;;35.90;17.67;;;4.70;92.30;;;;;;4920680;29;20031;-88
2020/12/03 04:05:13;;;;;;;32.77;17.53;;;4.60;92.30;;;;;;4937498;29;20028;-87
2020/12/03 04:07:39;;;;;;;33.50;17.73;;;4.70;92.40;;;;;;4921359;29;20024;-88
2020/12/03 04:10:06;;;;;;;33.33;17.77;;;4.70;92.30;;;;;;4938035;29;20845;-88
2020/12/03 04:12:32;;;;;;;34.27;18.63;;;4.70;92.40;;;;;;4921332;29;20028;-88
2020/12/03 04:15:00;;;;;;;35.13;19.07;;;4.70;92.30;;;;;;4911554;29;20038;-88
2020/12/03 04:17:27;;;;;;;37.33;19.53;;;4.70;92.30;;;;;;4919331;29;20553;-87
2020/12/03 04:19:54;;;;;;;31.60;18.03;;;4.60;92.30;;;;;;4902309;29;20079;-88
2020/12/03 04:22:20;;;;;;;33.60;18.57;;;4.70;92.40;;;;;;4901877;29;20024;-87
2020/12/03 04:24:45;;;;;;;33.77;18.50;;;4.70;92.40;;;;;;4901947;29;20028;-88
2020/12/03 04:27:11;;;;;;;34.47;18.73;;;4.60;92.40;;;;;;4918542;29;20024;-88
2020/12/03 04:29:37;;;;;;;34.73;18.33;;;4.60;92.40;;;;;;4918972;29;20024;-87
2020/12/03 04:32:03;;;;;;;34.93;19.50;;;4.70;92.40;;;;;;4901676;29;20442;-88
2020/12/03 04:34:28;;;;;;;33.40;20.20;;;4.70;92.40;;;;;;4902040;29;20032;-88
2020/12/03 04:36:54;;;;;;;35.83;19.33;;;4.70;92.30;;;;;;4918763;29;20410;-88
2020/12/03 04:39:20;;;;;;;38.67;21.43;;;4.70;92.40;;;;;;4919134;29;20092;-88
2020/12/03 04:41:45;;;;;;;34.97;18.37;;;4.70;92.50;;;;;;4901833;29;20039;-88
2020/12/03 04:44:37;;;;;;;37.40;20.13;;;4.70;92.50;;;;;;4901964;29;20098;-88
2020/12/03 04:47:25;;;;;;;33.97;19.73;;;4.70;92.40;;;;;;4901912;29;20047;-88
2020/12/03 04:50:26;;;;;;;37.30;20.13;;;4.70;92.40;;;;;;4901930;29;20031;-88
2020/12/03 04:53:09;;;;;;;37.63;21.40;;;4.70;92.30;;;;;;4887516;29;20032;-88
2020/12/03 04:55:54;;;;;;;32.73;18.90;;;4.70;92.40;;;;;;4901326;29;20096;-87
2020/12/03 04:58:39;;;;;;;34.80;19.33;;;4.70;92.50;;;;;;4918347;29;20127;-88
2020/12/03 05:01:31;;;;;;;33.40;17.93;;;4.70;92.40;;;;;;4901886;29;20553;-87
2020/12/03 05:04:08;;;;;;;32.77;18.77;;;4.80;92.30;;;;;;4901394;29;20423;-87
2020/12/03 05:06:47;;;;;;;35.73;19.50;;;4.70;92.30;;;;;;4918451;29;20028;-88
2020/12/03 05:09:35;;;;;;;33.72;18.67;;;4.70;92.30;;;;;;4901542;29;20393;-88
2020/12/03 05:12:16;;;;;;;33.23;18.97;;;4.70;92.40;;;;;;4896146;29;20082;-88
2020/12/03 05:15:12;;;;;;;33.97;18.77;;;4.70;92.40;;;;;;4901277;29;20039;-87
2020/12/03 05:18:15;;;;;;;31.70;19.63;;;4.70;92.30;;;;;;4916290;29;20028;-87
2020/12/03 05:20:49;;;;;;;34.67;19.17;;;4.70;92.30;;;;;;4901158;29;20032;-88
2020/12/03 05:23:27;;;;;;;34.73;18.37;;;4.70;92.40;;;;;;4901055;29;20075;-88
2020/12/03 05:25:55;;;;;;;36.03;19.30;;;4.70;92.40;;;;;;4901509;29;20024;-88
2020/12/03 05:28:20;;;;;;;32.30;18.17;;;4.80;92.30;;;;;;4901513;29;20048;-88
2020/12/03 05:30:46;;;;;;;32.67;18.00;;;4.70;92.20;;;;;;4901047;29;20461;-88
2020/12/03 05:33:12;;;;;;;33.00;18.87;;;4.70;92.20;;;;;;4900689;29;20032;-88
2020/12/03 05:35:39;;;;;;;34.03;18.07;;;4.70;92.30;;;;;;4916765;29;20035;-88
2020/12/03 05:38:14;;;;;;;30.47;16.97;;;4.70;92.30;;;;;;4909976;29;20027;-88
2020/12/03 05:40:40;;;;;;;34.13;19.50;;;4.70;92.30;;;;;;4943461;29;20039;-88
2020/12/03 05:43:10;;;;;;;30.13;17.00;;;4.70;92.20;;;;;;4942962;29;20205;-88
2020/12/03 05:45:36;;;;;;;28.73;16.90;;;4.70;92.30;;;;;;4943237;29;20500;-88
2020/12/03 05:48:04;;;;;;;29.63;17.17;;;4.70;92.30;;;;;;4943560;29;20365;-88
2020/12/03 05:50:37;;;;;;;29.02;16.23;;;4.70;92.30;;;;;;4943406;29;20035;-88
2020/12/03 05:53:17;;;;;;;30.43;17.53;;;4.70;92.20;;;;;;4944373;29;20034;-85
2020/12/03 05:55:43;;;;;;;30.67;16.80;;;4.70;92.20;;;;;;4963094;29;20121;-86
2020/12/03 05:58:17;;;;;;;31.23;17.23;;;4.70;92.30;;;;;;4963993;29;20058;-86
2020/12/03 06:00:44;;;;;;;31.27;16.80;;;4.70;92.30;;;;;;4964742;29;20023;-86
2020/12/03 06:03:40;;;;;;;27.77;16.13;;;4.70;92.30;;;;;;4964220;29;20049;-86
2020/12/03 06:06:38;;;;;;;30.43;16.40;;;4.70;92.60;;;;;;4946721;29;20481;-86
2020/12/03 06:09:51;;;;;;;30.88;18.92;;;4.70;92.20;;;;;;4963320;29;20019;-86
2020/12/03 06:12:32;;;;;;;28.53;15.80;;;4.70;92.20;;;;;;4956469;29;20567;-86
2020/12/03 06:15:08;;;;;;;32.23;17.33;;;4.70;92.20;;;;;;4947506;29;20031;-85
2020/12/03 06:17:55;;;;;;;29.57;16.33;;;4.80;92.40;;;;;;4948060;29;20515;-85
2020/12/03 06:20:50;;;;;;;29.87;16.77;;;4.80;92.20;;;;;;4964587;29;20067;-86
2020/12/03 06:23:47;;;;;;;29.90;17.03;;;4.80;92.20;;;;;;4947985;29;20078;-86
2020/12/03 06:26:44;;;;;;;26.47;14.37;;;4.80;92.20;;;;;;4947221;29;20078;-85
2020/12/03 06:29:28;;;;;;;28.57;16.00;;;4.80;92.20;;;;;;4926185;29;20099;-85
2020/12/03 06:32:21;;;;;;;28.57;15.10;;;4.80;92.10;;;;;;4982682;28;20023;-83
2020/12/03 06:35:11;;;;;;;28.23;15.67;;;4.80;92.10;;;;;;4982223;28;20035;-84
2020/12/03 06:38:10;;;;;;;30.40;15.77;;;4.80;92.40;;;;;;4939334;29;20393;-87
2020/12/03 06:40:41;;;;;;;27.35;15.48;;;4.80;92.10;;;;;;4920932;29;20404;-85
2020/12/03 06:43:31;;;;;;;28.40;16.27;;;4.80;92.10;;;;;;4960829;29;20054;-85
2020/12/03 06:46:42;;;;;;;29.23;16.07;;;4.80;92.00;;;;;;4928125;29;20045;-84
2020/12/03 06:49:51;;;;;;;31.43;17.33;;;4.80;92.10;;;;;;4926953;29;20028;-86
2020/12/03 06:52:23;;;;;;;28.93;15.97;;;4.80;92.10;;;;;;4928762;29;20130;-85
2020/12/03 06:55:18;;;;;;;38.13;17.87;;;4.80;92.00;;;;;;4928236;29;20047;-84
2020/12/03 06:58:12;;;;;;;31.13;16.97;;;4.80;92.10;;;;;;4946535;29;20459;-86
2020/12/03 07:01:15;;;;;;;29.83;17.83;;;4.70;92.00;;;;;;4925944;29;20067;-81
2020/12/03 07:04:25;;;;;;;32.67;18.07;;;4.80;92.10;;;;;;4939714;29;20035;-79
2020/12/03 07:07:06;;;;;;;31.60;17.33;;;4.80;92.20;;;;;;4916707;29;20389;-81
2020/12/03 07:09:51;;;;;;;29.83;17.23;;;4.80;92.10;;;;;;4927792;29;20032;-90
2020/12/03 07:12:28;;;;;;;34.53;19.00;;;4.80;92.10;;;;;;4932478;29;20031;-87
2020/12/03 07:15:29;;;;;;;31.07;17.83;;;4.70;92.20;;;;;;4925002;29;20536;-86
2020/12/03 07:18:16;;;;;;;33.07;17.37;;;4.70;92.30;;;;;;4923533;29;20039;-89
2020/12/03 07:21:17;;;;;;;30.30;16.83;;;4.70;92.30;;;;;;4940800;29;20035;-86
2020/12/03 07:24:21;;;;;;;31.73;16.23;;;4.70;92.20;;;;;;4901074;29;20059;-88
2020/12/03 07:27:11;;;;;;;33.63;17.43;;;4.70;92.30;;;;;;4841931;29;20029;-87
2020/12/03 07:29:51;;;;;;;30.07;16.10;;;4.70;92.30;;;;;;4903021;29;20040;-84
2020/12/03 07:32:57;;;;;;;28.00;15.63;;;4.80;92.30;;;;;;4904244;29;20016;-89
2020/12/03 07:35:35;;;;;;;30.03;15.80;;;4.70;92.20;;;;;;4875133;29;20051;-87
2020/12/03 07:38:35;;;;;;;30.47;16.00;;;4.80;92.30;;;;;;4900875;29;20126;-74
2020/12/03 07:41:01;;;;;;;29.17;16.00;;;4.80;92.30;;;;;;4917246;29;20036;-76
2020/12/03 07:43:31;;;;;;;28.87;15.70;;;4.80;92.30;;;;;;4916979;29;20095;-76
2020/12/03 07:45:58;;;;;;;32.23;15.50;;;4.80;92.20;;;;;;4915865;29;20028;-87
2020/12/03 07:48:32;;;;;;;31.33;17.20;;;4.80;92.20;;;;;;4902263;29;20028;-88
2020/12/03 07:51:01;;;;;;;33.13;17.00;;;4.80;92.20;;;;;;4921082;29;20031;-88
2020/12/03 07:53:27;;;;;;;27.40;14.80;;;4.80;92.10;;;;;;4903794;29;20032;-87
2020/12/03 07:55:53;;;;;;;26.67;14.87;;;4.80;92.20;;;;;;4907328;29;20043;-88
2020/12/03 07:58:35;;;;;;;28.27;15.40;;;4.80;92.20;;;;;;4920526;29;20028;-89
2020/12/03 08:01:06;;;;;;;27.03;13.93;;;4.80;92.20;;;;;;4917940;29;20075;-87
2020/12/03 08:03:45;;;;;;;26.80;13.53;;;4.80;92.40;;;;;;4902959;29;20474;-87
2020/12/03 08:06:11;;;;;;;26.38;13.95;;;4.90;92.00;;;;;;4903347;29;20087;-87
2020/12/03 08:08:42;;;;;;;25.97;13.33;;;4.90;92.10;;;;;;4903643;29;20558;-89
2020/12/03 08:11:41;;;;;;;25.57;13.33;;;4.80;92.10;;;;;;4902859;29;20024;-89
2020/12/03 08:14:32;;;;;;;22.87;12.60;;;4.80;92.10;;;;;;4919751;29;20033;-89
2020/12/03 08:16:59;;;;;;;25.40;13.27;;;4.80;92.10;;;;;;4904489;29;20032;-90
2020/12/03 08:19:29;;;;;;;24.63;13.13;;;4.90;92.10;;;;;;4904146;29;20069;-89
2020/12/03 08:21:55;;;;;;;27.03;12.27;;;4.80;92.10;;;;;;4907193;29;20032;-82
2020/12/03 08:24:32;;;;;;;25.20;11.70;;;4.90;92.30;;;;;;4913867;29;20100;-80
2020/12/03 08:27:17;;;;;;;22.03;11.83;;;4.90;92.10;;;;;;4922575;29;20028;-78
2020/12/03 08:29:42;;;;;;;20.97;10.77;;;4.90;92.00;;;;;;4921478;29;20394;-77
2020/12/03 08:32:08;;;;;;;21.60;10.47;;;5.00;92.00;;;;;;4918640;29;20032;-76
2020/12/03 08:34:41;;;;;;;21.33;10.27;;;5.00;91.90;;;;;;4916129;29;20406;-83
2020/12/03 08:37:21;;;;;;;19.33;9.80;;;5.00;91.90;;;;;;4891233;29;20753;-86
2020/12/03 08:39:55;;;;;;;21.27;11.03;;;5.00;91.90;;;;;;4889152;29;20056;-89
2020/12/03 08:42:21;;;;;;;21.20;10.50;;;5.00;91.90;;;;;;4892962;29;20032;-86
2020/12/03 08:44:48;;;;;;;20.33;10.43;;;5.00;91.70;;;;;;4901830;29;21389;-85
2020/12/03 08:47:34;;;;;;;20.63;10.13;;;5.10;91.60;;;;;;4888591;29;20083;-86
2020/12/03 08:50:02;;;;;;;23.47;11.23;;;5.10;91.50;;;;;;4892360;29;20036;-89
2020/12/03 08:52:31;;;;;;;24.37;10.83;;;5.00;91.50;;;;;;4906165;29;20124;-87
2020/12/03 08:55:07;;;;;;;21.47;9.73;;;5.00;91.60;;;;;;4902279;29;20032;-87
2020/12/03 08:57:42;;;;;;;21.80;10.73;;;5.00;91.60;;;;;;4891038;29;20032;-88
2020/12/03 09:00:14;;;;;;;21.50;10.20;;;5.00;91.60;;;;;;4888080;29;20047;-87
2020/12/03 09:02:41;;;;;;;23.87;10.67;;;5.00;91.60;;;;;;4888316;29;20016;-87
2020/12/03 09:05:08;;;;;;;24.83;11.23;;;5.00;91.70;;;;;;4907976;29;20031;-90
2020/12/03 09:07:46;;;;;;;22.20;10.30;;;5.00;91.60;;;;;;4891842;29;20033;-87
2020/12/03 09:10:13;;;;;;;21.80;10.30;;;4.90;91.70;;;;;;4889310;29;20111;-90
2020/12/03 09:12:43;;;;;;;20.13;10.30;;;4.90;91.60;;;;;;4909825;29;20032;-86
2020/12/03 09:15:11;;;;;;;21.03;9.63;;;4.90;91.60;;;;;;4904458;29;20030;-87
2020/12/03 09:17:44;;;;;;;20.23;10.17;;;4.90;91.60;;;;;;4914384;29;20016;-86
2020/12/03 09:20:12;;;;;;;20.53;9.37;;;4.90;91.60;;;;;;4915715;29;20032;-88
2020/12/03 09:22:38;;;;;;;20.63;10.10;;;4.90;91.70;;;;;;4914129;29;20075;-87
2020/12/03 09:25:12;;;;;;;20.13;9.67;;;4.90;91.70;;;;;;4907424;29;20040;-89
2020/12/03 09:27:43;;;;;;;23.13;10.33;;;4.80;91.70;;;;;;4924400;29;20033;-88
2020/12/03 09:30:28;;;;;;;21.00;8.97;;;4.90;91.70;;;;;;4908669;29;20055;-78
2020/12/03 09:33:00;;;;;;;21.30;9.80;;;4.90;91.60;;;;;;4927161;29;20476;-77
2020/12/03 09:35:28;;;;;;;21.27;9.93;;;4.90;91.60;;;;;;4927600;29;20059;-78
2020/12/03 09:38:04;;;;;;;19.13;9.30;;;4.90;91.50;;;;;;4924454;29;20040;-80
2020/12/03 09:40:30;;;;;;;21.30;10.13;;;4.90;91.50;;;;;;4930317;29;20043;-81
2020/12/03 09:42:56;;;;;;;20.57;9.63;;;4.90;91.40;;;;;;4927072;29;20028;-81
2020/12/03 09:45:25;;;;;;;19.57;8.40;;;4.90;91.40;;;;;;4923502;29;20536;-81
2020/12/03 09:47:57;;;;;;;19.87;9.20;;;4.90;91.50;;;;;;4927642;29;20032;-80
2020/12/03 09:50:27;;;;;;;19.63;9.43;;;4.90;91.40;;;;;;4929938;29;20030;-93
2020/12/03 09:52:54;;;;;;;21.07;9.23;;;4.90;91.30;;;;;;4915784;29;20065;-91
2020/12/03 09:55:20;;;;;;;19.03;9.10;;;5.00;91.30;;;;;;4911616;29;20036;-89
2020/12/03 09:57:56;;;;;;;19.03;9.50;;;5.00;91.30;;;;;;4927214;29;20079;-88
2020/12/03 10:00:30;;;;;;;18.30;8.70;;;5.00;91.30;;;;;;4922172;29;20381;-91
2020/12/03 10:03:21;;;;;;;19.93;9.37;;;5.00;91.20;;;;;;4918976;29;20019;-90
2020/12/03 10:06:38;;;;;;;19.97;8.60;;;5.00;91.10;;;;;;4908625;29;20043;-91
2020/12/03 10:09:21;;;;;;;19.50;9.73;;;5.00;91.20;;;;;;4882750;29;20409;-93
2020/12/03 10:12:09;;;;;;;19.30;8.57;;;5.00;91.30;;;;;;4902639;29;20078;-90
2020/12/03 10:15:10;;;;;;;18.40;8.70;;;5.00;91.20;;;;;;4911075;29;20149;-91
2020/12/03 10:18:09;;;;;;;19.33;8.73;;;5.00;91.10;;;;;;4910110;29;20019;-87
2020/12/03 10:20:36;;;;;;;18.93;8.23;;;5.00;91.10;;;;;;4913777;29;20040;-89
2020/12/03 10:23:20;;;;;;;21.17;8.80;;;5.00;91.10;;;;;;4912182;29;20059;-86
2020/12/03 10:25:57;;;;;;;19.37;9.47;;;5.00;91.20;;;;;;4936236;29;20098;-90
2020/12/03 10:28:39;;;;;;;19.77;9.07;;;5.00;91.10;;;;;;4925339;29;20046;-90
2020/12/03 10:31:05;;;;;;;18.80;8.80;;;5.00;91.10;;;;;;4913420;29;20587;-86
2020/12/03 10:33:35;;;;;;;17.90;8.77;;;5.00;91.30;;;;;;4932951;29;20058;-89
2020/12/03 10:36:09;;;;;;;19.77;9.10;;;5.00;91.20;;;;;;4919856;29;20043;-92
2020/12/03 10:38:45;;;;;;;18.23;7.83;;;5.10;91.20;;;;;;4923214;29;20035;-88
2020/12/03 10:41:10;;;;;;;18.40;8.60;;;5.10;91.30;;;;;;4918225;29;20092;-77
2020/12/03 10:43:40;;;;;;;18.13;7.67;;;5.10;91.30;;;;;;4934848;29;20044;-78
2020/12/03 10:46:12;;;;;;;19.20;8.57;;;5.10;91.30;;;;;;4943305;29;20503;-79
2020/12/03 10:48:40;;;;;;;17.30;7.80;;;5.10;91.20;;;;;;4930461;29;20043;-79
2020/12/03 10:51:08;;;;;;;17.38;8.13;;;5.10;91.20;;;;;;4933982;28;20046;-79
2020/12/03 10:53:35;;;;;;;18.17;8.07;;;5.20;91.30;;;;;;4935234;29;20046;-87
2020/12/03 10:56:02;;;;;;;17.57;7.80;;;5.20;91.10;;;;;;4934754;29;20050;-88
2020/12/03 10:59:11;;;;;;;16.80;7.60;;;5.20;91.10;;;;;;4937451;29;20454;-87
2020/12/03 11:01:33;;;;;;;18.50;8.20;;;5.10;91.10;;;;;;4944751;29;20046;-92
2020/12/03 11:04:06;;;;;;;17.87;7.63;;;5.20;91.00;;;;;;4927607;29;20608;-89
2020/12/03 11:06:33;;;;;;;18.57;8.03;;;5.20;91.00;;;;;;4927633;29;20044;-89
2020/12/03 11:09:00;;;;;;;18.40;8.67;;;5.20;90.90;;;;;;4924525;29;20067;-87
2020/12/03 11:11:37;;;;;;;19.37;7.93;;;5.10;91.30;;;;;;4920386;29;20040;-86
2020/12/03 11:14:13;;;;;;;17.90;7.57;;;5.10;91.20;;;;;;4941625;29;20114;-88
2020/12/03 11:16:48;;;;;;;17.50;7.17;;;5.10;91.20;;;;;;4937410;29;20043;-87
2020/12/03 11:19:16;;;;;;;18.77;7.50;;;5.10;91.20;;;;;;4921477;29;20285;-90
2020/12/03 11:22:06;;;;;;;16.60;7.47;;;5.20;91.20;;;;;;4939546;29;20046;-92
2020/12/03 11:24:37;;;;;;;17.17;7.80;;;5.10;91.20;;;;;;4913151;29;20056;-91
2020/12/03 11:27:04;;;;;;;19.37;7.23;;;5.10;91.20;;;;;;4919055;29;20081;-92
2020/12/03 11:29:36;;;;;;;18.70;8.53;;;5.10;91.30;;;;;;4924147;29;20037;-88
2020/12/03 11:32:02;;;;;;;17.27;7.60;;;5.20;91.20;;;;;;4926755;29;20135;-88
2020/12/03 11:34:38;;;;;;;19.30;7.53;;;5.10;91.20;;;;;;4926626;29;20123;-88
2020/12/03 11:37:08;;;;;;;17.23;7.40;;;5.20;91.10;;;;;;4938326;29;20039;-89
2020/12/03 11:39:33;;;;;;;18.13;7.35;;;5.20;91.30;;;;;;4923007;29;20454;-79
2020/12/03 11:50:40;;;;;;;16.60;7.23;;;5.30;90.80;;;;;;4929615;29;20031;-73
2020/12/03 11:53:06;;;;;;;19.17;6.87;;;5.40;90.80;;;;;;4920524;29;20506;-74
2020/12/03 11:55:39;;;;;;;18.70;7.40;;;5.50;90.80;;;;;;4923337;29;20573;-75
2020/12/03 11:58:08;;;;;;;16.87;6.57;;;5.50;90.60;;;;;;4925011;29;20037;-73
2020/12/03 12:00:35;;;;;;;17.13;7.10;;;5.60;90.60;;;;;;4926390;29;20396;-76
2020/12/03 12:03:07;;;;;;;16.07;6.90;;;5.60;90.40;;;;;;4936653;29;20036;-81
2020/12/03 12:08:54;;;;;;;17.55;7.05;;;5.80;90.30;;;;;;4936936;29;20028;-84
2020/12/03 12:13:18;;;;;;;17.17;6.70;;;5.80;90.40;;;;;;4932250;29;20074;-85
2020/12/03 12:15:43;;;;;;;15.20;7.00;;;5.80;90.40;;;;;;4920031;29;20036;-81
2020/12/03 12:18:09;;;;;;;14.97;6.50;;;5.80;90.30;;;;;;4923445;29;20031;-79
2020/12/03 12:20:35;;;;;;;16.50;6.93;;;5.90;90.10;;;;;;4914076;29;20047;-85
2020/12/03 12:23:01;;;;;;;15.00;6.63;;;5.90;90.10;;;;;;4915574;29;20370;-86
2020/12/03 12:25:26;;;;;;;15.63;6.57;;;5.90;90.00;;;;;;4925891;29;20561;-84
2020/12/03 12:27:52;;;;;;;17.43;6.30;;;5.80;90.10;;;;;;4918349;29;20042;-86
2020/12/03 12:30:18;;;;;;;18.33;7.20;;;5.80;90.20;;;;;;4911566;29;20154;-84
2020/12/03 12:32:44;;;;;;;15.33;6.40;;;5.80;90.10;;;;;;4915826;29;20113;-85
2020/12/03 12:35:09;;;;;;;17.07;7.27;;;5.80;90.20;;;;;;4910448;29;20035;-84
2020/12/03 12:37:35;;;;;;;16.87;6.83;;;5.80;90.20;;;;;;4924445;29;20096;-84
2020/12/03 12:40:00;;;;;;;16.07;6.97;;;5.70;90.20;;;;;;4910089;29;20039;-83
2020/12/03 12:42:27;;;;;;;16.77;6.40;;;5.70;90.20;;;;;;4915574;29;20501;-85
2020/12/03 12:44:53;;;;;;;16.47;6.40;;;5.70;90.20;;;;;;4929272;29;20036;-85
2020/12/03 12:47:19;;;;;;;15.97;6.67;;;5.70;90.30;;;;;;4911916;29;20032;-85
2020/12/03 12:49:44;;;;;;;18.43;7.17;;;5.70;90.30;;;;;;4914599;29;20062;-86
2020/12/03 12:52:10;;;;;;;19.70;7.30;;;5.70;90.30;;;;;;4934270;29;20362;-84
2020/12/03 12:54:36;;;;;;;16.33;6.83;;;5.70;90.40;;;;;;4930226;29;20035;-87
2020/12/03 12:57:02;;;;;;;15.53;6.20;;;5.70;90.30;;;;;;4917862;29;20067;-88
2020/12/03 12:59:28;;;;;;;17.50;7.10;;;5.70;90.40;;;;;;4914586;29;20054;-85
2020/12/03 13:01:54;;;;;;;16.83;6.90;;;5.70;90.30;;;;;;4915997;29;20035;-87
2020/12/03 13:04:20;;;;;;;15.93;6.57;;;5.70;90.30;;;;;;4924347;29;20541;-87
2020/12/03 13:06:47;;;;;;;17.13;7.07;;;5.70;90.30;;;;;;4914091;29;20032;-87
2020/12/03 13:09:12;;;;;;;15.97;7.03;;;5.70;90.40;;;;;;4929232;29;20028;-87
2020/12/03 13:11:39;;;;;;;15.20;6.60;;;5.70;90.30;;;;;;4913853;29;20697;-87
2020/12/03 13:14:07;;;;;;;15.80;6.63;;;5.70;90.30;;;;;;4913589;29;20036;-85
2020/12/03 13:16:35;;;;;;;16.50;7.03;;;5.70;90.10;;;;;;4931656;29;20035;-87
2020/12/03 13:19:02;;;;;;;16.33;6.97;;;5.70;90.30;;;;;;4915154;29;20553;-86
2020/12/03 13:21:29;;;;;;;18.27;7.10;;;5.60;90.30;;;;;;4931027;29;20027;-87